AAL9890 KAVL-TJPS
Flight info
| Callsign | AAL9890 |
|---|---|
| Flight time | 3h 20m |
| Altitude | 35000 |
| Route | CARTT V53 SPA DCT QUIWE DCT DEDDY Y436 JAINS/M079F350 L451 ILIDO DCT LNHOM/N0464F350 L452 SLUKA Y439 MEEGL |
| Aircraft | A319/M-SDE3FGHIRWY/LB1 |
Departure
| Time | 2026-04-21 22:04 |
|---|---|
| Airport | Asheville Regional Airport (KAVL) |
Arrival
| Time | 2026-04-22 01:24 |
|---|---|
| Airport | Mercedita International Airport (TJPS) |
| Time | Latitude | Longitude | Altitude | Speed | Heading |
|---|---|---|---|---|---|
| 2026-04-21 21:41 | 35.43605 | -82.53963 | 2158 ft | 0 kts | 161° |
| 2026-04-21 21:59 | 35.43591 | -82.53958 | 2155 ft | 5 kts | 164° |
| 2026-04-21 22:00 | 35.43538 | -82.53964 | 2154 ft | 11 kts | 207° |
| 2026-04-21 22:00 | 35.43567 | -82.54042 | 2152 ft | 15 kts | 339° |
| 2026-04-21 22:00 | 35.43678 | -82.54091 | 2152 ft | 18 kts | 340° |
| 2026-04-21 22:00 | 35.43786 | -82.54140 | 2158 ft | 15 kts | 340° |
| 2026-04-21 22:01 | 35.43889 | -82.54187 | 2155 ft | 17 kts | 340° |
| 2026-04-21 22:01 | 35.43965 | -82.54220 | 2156 ft | 18 kts | 340° |
| 2026-04-21 22:01 | 35.44078 | -82.54271 | 2157 ft | 17 kts | 340° |
| 2026-04-21 22:01 | 35.44188 | -82.54321 | 2161 ft | 17 kts | 340° |
| 2026-04-21 22:02 | 35.44306 | -82.54373 | 2158 ft | 18 kts | 340° |
| 2026-04-21 22:02 | 35.44424 | -82.54427 | 2155 ft | 18 kts | 340° |
| 2026-04-21 22:02 | 35.44549 | -82.54483 | 2155 ft | 20 kts | 339° |
| 2026-04-21 22:02 | 35.44662 | -82.54561 | 2155 ft | 10 kts | 278° |
| 2026-04-21 22:03 | 35.44652 | -82.54614 | 2152 ft | 9 kts | 251° |
| 2026-04-21 22:03 | 35.44633 | -82.54666 | 2158 ft | 4 kts | 223° |
| 2026-04-21 22:03 | 35.44598 | -82.54652 | 2157 ft | 12 kts | 157° |
| 2026-04-21 22:03 | 35.44297 | -82.54519 | 2158 ft | 86 kts | 160° |
| 2026-04-21 22:04 | 35.43509 | -82.54165 | 2158 ft | 153 kts | 161° |
| 2026-04-21 22:04 | 35.42493 | -82.53704 | 2836 ft | 155 kts | 161° |
| 2026-04-21 22:04 | 35.41469 | -82.53235 | 3651 ft | 160 kts | 161° |
| 2026-04-21 22:04 | 35.40381 | -82.52735 | 4281 ft | 174 kts | 161° |
| 2026-04-21 22:05 | 35.39186 | -82.52184 | 4633 ft | 193 kts | 162° |
| 2026-04-21 22:05 | 35.37854 | -82.51594 | 4911 ft | 214 kts | 163° |
| 2026-04-21 22:05 | 35.36382 | -82.50955 | 5243 ft | 237 kts | 163° |
| 2026-04-21 22:05 | 35.34770 | -82.50251 | 5625 ft | 260 kts | 162° |
| 2026-04-21 22:06 | 35.33017 | -82.49480 | 6226 ft | 274 kts | 162° |
| 2026-04-21 22:06 | 35.31253 | -82.48484 | 6946 ft | 287 kts | 147° |
| 2026-04-21 22:06 | 35.29889 | -82.46670 | 7668 ft | 295 kts | 119° |
| 2026-04-21 22:06 | 35.29032 | -82.44372 | 8521 ft | 298 kts | 113° |
| 2026-04-21 22:07 | 35.28213 | -82.42028 | 9375 ft | 302 kts | 113° |
| 2026-04-21 22:07 | 35.27390 | -82.39653 | 10193 ft | 307 kts | 113° |
| 2026-04-21 22:07 | 35.26526 | -82.37168 | 10522 ft | 329 kts | 113° |
| 2026-04-21 22:07 | 35.25608 | -82.34540 | 10730 ft | 352 kts | 113° |
| 2026-04-21 22:08 | 35.24613 | -82.31698 | 10890 ft | 375 kts | 113° |
| 2026-04-21 22:08 | 35.23570 | -82.28721 | 11328 ft | 386 kts | 113° |
| 2026-04-21 22:08 | 35.22504 | -82.25683 | 11928 ft | 391 kts | 113° |
| 2026-04-21 22:08 | 35.21421 | -82.22605 | 12555 ft | 396 kts | 113° |
| 2026-04-21 22:09 | 35.20325 | -82.19491 | 13187 ft | 402 kts | 113° |
| 2026-04-21 22:09 | 35.19212 | -82.16335 | 13810 ft | 407 kts | 113° |
| 2026-04-21 22:09 | 35.18086 | -82.13142 | 14386 ft | 413 kts | 113° |
| 2026-04-21 22:09 | 35.16937 | -82.09895 | 14953 ft | 417 kts | 113° |
| 2026-04-21 22:10 | 35.15741 | -82.06648 | 15514 ft | 422 kts | 117° |
| 2026-04-21 22:10 | 35.14169 | -82.03600 | 16083 ft | 426 kts | 127° |
| 2026-04-21 22:10 | 35.12177 | -82.00907 | 16627 ft | 430 kts | 138° |
| 2026-04-21 22:10 | 35.09863 | -81.98640 | 17160 ft | 434 kts | 144° |
| 2026-04-21 22:11 | 35.07400 | -81.96405 | 17730 ft | 438 kts | 144° |
| 2026-04-21 22:11 | 35.04959 | -81.94239 | 18272 ft | 441 kts | 148° |
| 2026-04-21 22:11 | 35.02267 | -81.92417 | 18762 ft | 444 kts | 158° |
| 2026-04-21 22:11 | 34.99374 | -81.91101 | 19218 ft | 445 kts | 165° |
| 2026-04-21 22:12 | 34.96409 | -81.89932 | 19682 ft | 448 kts | 165° |
| 2026-04-21 22:12 | 34.93436 | -81.88760 | 20152 ft | 451 kts | 165° |
| 2026-04-21 22:12 | 34.90440 | -81.87575 | 20591 ft | 455 kts | 165° |
| 2026-04-21 22:12 | 34.87421 | -81.86380 | 21036 ft | 457 kts | 165° |
| 2026-04-21 22:13 | 34.84427 | -81.85193 | 21443 ft | 461 kts | 164° |
| 2026-04-21 22:13 | 34.81371 | -81.83978 | 21882 ft | 463 kts | 165° |
| 2026-04-21 22:13 | 34.78295 | -81.82757 | 22294 ft | 467 kts | 165° |
| 2026-04-21 22:13 | 34.75237 | -81.81546 | 22696 ft | 469 kts | 165° |
| 2026-04-21 22:14 | 34.72121 | -81.80317 | 23102 ft | 472 kts | 165° |
| 2026-04-21 22:14 | 34.68992 | -81.79086 | 23505 ft | 475 kts | 165° |
| 2026-04-21 22:14 | 34.65834 | -81.77841 | 23882 ft | 478 kts | 165° |
| 2026-04-21 22:14 | 34.62660 | -81.76588 | 24216 ft | 481 kts | 165° |
| 2026-04-21 22:15 | 34.59475 | -81.75332 | 24554 ft | 483 kts | 165° |
| 2026-04-21 22:15 | 34.56272 | -81.74073 | 24884 ft | 485 kts | 165° |
| 2026-04-21 22:15 | 34.53059 | -81.72812 | 25196 ft | 487 kts | 165° |
| 2026-04-21 22:15 | 34.49824 | -81.71542 | 25512 ft | 489 kts | 165° |
| 2026-04-21 22:16 | 34.46580 | -81.70269 | 25843 ft | 491 kts | 165° |
| 2026-04-21 22:16 | 34.43326 | -81.68993 | 26160 ft | 493 kts | 165° |
| 2026-04-21 22:16 | 34.40052 | -81.67708 | 26453 ft | 495 kts | 165° |
| 2026-04-21 22:16 | 34.36813 | -81.66441 | 26740 ft | 497 kts | 165° |
| 2026-04-21 22:17 | 34.33517 | -81.65153 | 27033 ft | 499 kts | 165° |
| 2026-04-21 22:17 | 34.30213 | -81.63862 | 27329 ft | 500 kts | 166° |
| 2026-04-21 22:17 | 34.26896 | -81.62566 | 27606 ft | 502 kts | 166° |
| 2026-04-21 22:17 | 34.23561 | -81.61264 | 27968 ft | 502 kts | 166° |
| 2026-04-21 22:18 | 34.20240 | -81.59969 | 28395 ft | 501 kts | 166° |
| 2026-04-21 22:18 | 34.16934 | -81.58684 | 28818 ft | 499 kts | 166° |
| 2026-04-21 22:18 | 34.13625 | -81.57398 | 29232 ft | 499 kts | 166° |
| 2026-04-21 22:18 | 34.10366 | -81.56133 | 29624 ft | 498 kts | 166° |
| 2026-04-21 22:19 | 34.07081 | -81.54856 | 30050 ft | 497 kts | 166° |
| 2026-04-21 22:19 | 34.03789 | -81.53575 | 30471 ft | 496 kts | 166° |
| 2026-04-21 22:19 | 34.00514 | -81.52263 | 30813 ft | 497 kts | 163° |
| 2026-04-21 22:19 | 33.97355 | -81.50509 | 31138 ft | 502 kts | 154° |
| 2026-04-21 22:20 | 33.94430 | -81.48208 | 31464 ft | 506 kts | 145° |
| 2026-04-21 22:20 | 33.91788 | -81.45384 | 31785 ft | 509 kts | 136° |
| 2026-04-21 22:20 | 33.89448 | -81.42177 | 32101 ft | 511 kts | 132° |
| 2026-04-21 22:20 | 33.87142 | -81.38915 | 32414 ft | 511 kts | 132° |
| 2026-04-21 22:21 | 33.84869 | -81.35709 | 32718 ft | 511 kts | 132° |
| 2026-04-21 22:21 | 33.82557 | -81.32457 | 33035 ft | 512 kts | 133° |
| 2026-04-21 22:21 | 33.80240 | -81.29198 | 33353 ft | 512 kts | 133° |
| 2026-04-21 22:21 | 33.77927 | -81.25947 | 33667 ft | 513 kts | 133° |
| 2026-04-21 22:22 | 33.75609 | -81.22697 | 33970 ft | 513 kts | 133° |
| 2026-04-21 22:22 | 33.73281 | -81.19439 | 34308 ft | 513 kts | 133° |
| 2026-04-21 22:22 | 33.70957 | -81.16193 | 34576 ft | 513 kts | 133° |
| 2026-04-21 22:22 | 33.68627 | -81.12938 | 34844 ft | 514 kts | 133° |
| 2026-04-21 22:23 | 33.66303 | -81.09689 | 35118 ft | 514 kts | 133° |
| 2026-04-21 22:23 | 33.63967 | -81.06423 | 35268 ft | 515 kts | 133° |
| 2026-04-21 22:23 | 33.61627 | -81.03152 | 35298 ft | 518 kts | 133° |
| 2026-04-21 22:24 | 33.56929 | -80.96585 | 35295 ft | 520 kts | 133° |
| 2026-04-21 22:24 | 33.52211 | -80.90011 | 35309 ft | 520 kts | 133° |
| 2026-04-21 22:25 | 33.47474 | -80.83440 | 35311 ft | 521 kts | 133° |
| 2026-04-21 22:25 | 33.42769 | -80.76918 | 35312 ft | 521 kts | 134° |
| 2026-04-21 22:26 | 33.38023 | -80.70351 | 35315 ft | 521 kts | 134° |
| 2026-04-21 22:26 | 33.33279 | -80.63790 | 35317 ft | 522 kts | 134° |
| 2026-04-21 22:27 | 33.28528 | -80.57233 | 35317 ft | 522 kts | 134° |
| 2026-04-21 22:27 | 33.23760 | -80.50685 | 35309 ft | 522 kts | 134° |
| 2026-04-21 22:28 | 33.18984 | -80.44146 | 35298 ft | 523 kts | 134° |
| 2026-04-21 22:28 | 33.14245 | -80.37634 | 35294 ft | 523 kts | 134° |
| 2026-04-21 22:29 | 33.09470 | -80.31081 | 35290 ft | 524 kts | 134° |
| 2026-04-21 22:29 | 33.04681 | -80.24530 | 35284 ft | 524 kts | 134° |
| 2026-04-21 22:30 | 32.99877 | -80.17988 | 35286 ft | 525 kts | 134° |
| 2026-04-21 22:30 | 32.95068 | -80.11453 | 35317 ft | 525 kts | 134° |
| 2026-04-21 22:31 | 32.90424 | -80.04731 | 35316 ft | 529 kts | 125° |
| 2026-04-21 22:31 | 32.87145 | -79.96959 | 35317 ft | 531 kts | 111° |
| 2026-04-21 22:32 | 32.84396 | -79.88799 | 35320 ft | 532 kts | 112° |
| 2026-04-21 22:32 | 32.81614 | -79.80624 | 35320 ft | 533 kts | 112° |
| 2026-04-21 22:33 | 32.78831 | -79.72454 | 35322 ft | 534 kts | 112° |
| 2026-04-21 22:33 | 32.76054 | -79.64280 | 35326 ft | 534 kts | 112° |
| 2026-04-21 22:34 | 32.73271 | -79.56087 | 35321 ft | 535 kts | 112° |
| 2026-04-21 22:34 | 32.70608 | -79.47831 | 35317 ft | 536 kts | 110° |
| 2026-04-21 22:35 | 32.68060 | -79.39576 | 35312 ft | 537 kts | 110° |
| 2026-04-21 22:35 | 32.65470 | -79.31258 | 35315 ft | 538 kts | 110° |
| 2026-04-21 22:36 | 32.61493 | -79.18799 | 35319 ft | 539 kts | 111° |
| 2026-04-21 22:36 | 32.58839 | -79.10539 | 35316 ft | 540 kts | 111° |
| 2026-04-21 22:37 | 32.56178 | -79.02207 | 35322 ft | 541 kts | 111° |
| 2026-04-21 22:37 | 32.53507 | -78.93859 | 35317 ft | 542 kts | 111° |
| 2026-04-21 22:38 | 32.50824 | -78.85513 | 35322 ft | 543 kts | 111° |
| 2026-04-21 22:38 | 32.48124 | -78.77146 | 35317 ft | 544 kts | 111° |
| 2026-04-21 22:39 | 32.45443 | -78.68843 | 35327 ft | 544 kts | 111° |
| 2026-04-21 22:39 | 32.42732 | -78.60469 | 35319 ft | 545 kts | 111° |
| 2026-04-21 22:40 | 32.40006 | -78.52101 | 35325 ft | 545 kts | 111° |
| 2026-04-21 22:40 | 32.37274 | -78.43719 | 35321 ft | 546 kts | 111° |
| 2026-04-21 22:41 | 32.34539 | -78.35341 | 35327 ft | 546 kts | 111° |
| 2026-04-21 22:41 | 32.31800 | -78.26960 | 35315 ft | 547 kts | 111° |
| 2026-04-21 22:42 | 32.29051 | -78.18571 | 35322 ft | 548 kts | 112° |
| 2026-04-21 22:42 | 32.26304 | -78.10232 | 35319 ft | 548 kts | 112° |
| 2026-04-21 22:43 | 32.23535 | -78.01842 | 35322 ft | 549 kts | 112° |
| 2026-04-21 22:43 | 32.20688 | -77.93480 | 35300 ft | 548 kts | 117° |
| 2026-04-21 22:44 | 32.16599 | -77.85973 | 35312 ft | 541 kts | 135° |
| 2026-04-21 22:44 | 32.11260 | -77.79849 | 35304 ft | 534 kts | 144° |
| 2026-04-21 22:45 | 32.05777 | -77.74009 | 35308 ft | 535 kts | 144° |
| 2026-04-21 22:45 | 32.00238 | -77.68128 | 35306 ft | 536 kts | 144° |
| 2026-04-21 22:46 | 31.94717 | -77.62248 | 35310 ft | 536 kts | 144° |
| 2026-04-21 22:46 | 31.89185 | -77.56365 | 35308 ft | 536 kts | 145° |
| 2026-04-21 22:47 | 31.83645 | -77.50504 | 35317 ft | 535 kts | 145° |
| 2026-04-21 22:47 | 31.78142 | -77.44688 | 35317 ft | 535 kts | 145° |
| 2026-04-21 22:48 | 31.72602 | -77.38838 | 35316 ft | 536 kts | 145° |
| 2026-04-21 22:48 | 31.67055 | -77.32989 | 35311 ft | 536 kts | 146° |
| 2026-04-21 22:49 | 31.61501 | -77.27157 | 35312 ft | 536 kts | 146° |
| 2026-04-21 22:49 | 31.55978 | -77.21365 | 35307 ft | 537 kts | 146° |
| 2026-04-21 22:50 | 31.50414 | -77.15529 | 35302 ft | 537 kts | 146° |
| 2026-04-21 22:50 | 31.44843 | -77.09698 | 35311 ft | 537 kts | 146° |
| 2026-04-21 22:51 | 31.39273 | -77.03880 | 35316 ft | 537 kts | 146° |
| 2026-04-21 22:51 | 31.33684 | -76.98090 | 35316 ft | 535 kts | 147° |
| 2026-04-21 22:52 | 31.28016 | -76.92570 | 35321 ft | 532 kts | 149° |
| 2026-04-21 22:52 | 31.22247 | -76.87153 | 35318 ft | 532 kts | 149° |
| 2026-04-21 22:53 | 31.16504 | -76.81719 | 35326 ft | 532 kts | 149° |
| 2026-04-21 22:53 | 31.10788 | -76.76223 | 35320 ft | 532 kts | 149° |
| 2026-04-21 22:54 | 31.05117 | -76.70777 | 35323 ft | 531 kts | 149° |
| 2026-04-21 22:54 | 30.99397 | -76.65317 | 35317 ft | 531 kts | 149° |
| 2026-04-21 22:55 | 30.93688 | -76.59869 | 35317 ft | 531 kts | 149° |
| 2026-04-21 22:55 | 30.87967 | -76.54422 | 35311 ft | 531 kts | 149° |
| 2026-04-21 22:56 | 30.82292 | -76.49030 | 35308 ft | 530 kts | 149° |
| 2026-04-21 22:56 | 30.76576 | -76.43605 | 35299 ft | 530 kts | 149° |
| 2026-04-21 22:57 | 30.70862 | -76.38187 | 35297 ft | 530 kts | 149° |
| 2026-04-21 22:57 | 30.65178 | -76.32804 | 35293 ft | 530 kts | 149° |
| 2026-04-21 22:58 | 30.59456 | -76.27401 | 35292 ft | 530 kts | 150° |
| 2026-04-21 22:58 | 30.53728 | -76.22002 | 35289 ft | 531 kts | 150° |
| 2026-04-21 22:59 | 30.47998 | -76.16610 | 35289 ft | 531 kts | 150° |
| 2026-04-21 22:59 | 30.42254 | -76.11211 | 35294 ft | 532 kts | 150° |
| 2026-04-21 23:00 | 30.39388 | -76.08519 | 35587 ft | 532 kts | 150° |
| 2026-04-21 23:00 | 30.36553 | -76.05859 | 35887 ft | 531 kts | 150° |
| 2026-04-21 23:00 | 30.33675 | -76.03164 | 36152 ft | 531 kts | 150° |
| 2026-04-21 23:00 | 30.30797 | -76.00474 | 36408 ft | 532 kts | 150° |
| 2026-04-21 23:01 | 30.27926 | -75.97791 | 36665 ft | 532 kts | 150° |
| 2026-04-21 23:01 | 30.25047 | -75.95103 | 36922 ft | 532 kts | 150° |
| 2026-04-21 23:01 | 30.22166 | -75.92412 | 37168 ft | 532 kts | 150° |
| 2026-04-21 23:01 | 30.19286 | -75.89722 | 37302 ft | 533 kts | 150° |
| 2026-04-21 23:02 | 30.13565 | -75.84376 | 37310 ft | 532 kts | 150° |
| 2026-04-21 23:02 | 30.07802 | -75.78991 | 37311 ft | 532 kts | 150° |
| 2026-04-21 23:03 | 30.02037 | -75.73634 | 37306 ft | 532 kts | 148° |
| 2026-04-21 23:03 | 29.96268 | -75.68282 | 37318 ft | 532 kts | 150° |
| 2026-04-21 23:04 | 29.90532 | -75.62974 | 37312 ft | 532 kts | 150° |
| 2026-04-21 23:04 | 29.84763 | -75.57625 | 37309 ft | 532 kts | 149° |
| 2026-04-21 23:05 | 29.79000 | -75.52292 | 37313 ft | 531 kts | 149° |
| 2026-04-21 23:05 | 29.73241 | -75.46980 | 37300 ft | 531 kts | 149° |
| 2026-04-21 23:06 | 29.67521 | -75.41712 | 37297 ft | 530 kts | 149° |
| 2026-04-21 23:06 | 29.61763 | -75.36420 | 37300 ft | 530 kts | 149° |
| 2026-04-21 23:07 | 29.56011 | -75.31130 | 37306 ft | 529 kts | 149° |
| 2026-04-21 23:07 | 29.50260 | -75.25845 | 37304 ft | 529 kts | 149° |
| 2026-04-21 23:08 | 29.44511 | -75.20588 | 37304 ft | 528 kts | 149° |
| 2026-04-21 23:08 | 29.38795 | -75.15371 | 37311 ft | 528 kts | 149° |
| 2026-04-21 23:09 | 29.33050 | -75.10120 | 37316 ft | 528 kts | 149° |
| 2026-04-21 23:09 | 29.27325 | -75.04891 | 37308 ft | 523 kts | 145° |
| 2026-04-21 23:10 | 29.21713 | -74.99774 | 37303 ft | 512 kts | 146° |
| 2026-04-21 23:10 | 29.16137 | -74.94720 | 37304 ft | 511 kts | 146° |
| 2026-04-21 23:11 | 29.10602 | -74.89705 | 37301 ft | 511 kts | 146° |
| 2026-04-21 23:11 | 29.05031 | -74.84661 | 37304 ft | 511 kts | 146° |
| 2026-04-21 23:12 | 28.99466 | -74.79614 | 37299 ft | 511 kts | 146° |
| 2026-04-21 23:12 | 28.93895 | -74.74575 | 37298 ft | 511 kts | 146° |
| 2026-04-21 23:13 | 28.88360 | -74.69567 | 37296 ft | 511 kts | 146° |
| 2026-04-21 23:13 | 28.82787 | -74.64543 | 37292 ft | 511 kts | 146° |
| 2026-04-21 23:14 | 28.77203 | -74.59518 | 37293 ft | 511 kts | 146° |
| 2026-04-21 23:14 | 28.71619 | -74.54506 | 37294 ft | 511 kts | 146° |
| 2026-04-21 23:15 | 28.66065 | -74.49528 | 37296 ft | 511 kts | 146° |
| 2026-04-21 23:15 | 28.60481 | -74.44508 | 37296 ft | 512 kts | 146° |
| 2026-04-21 23:16 | 28.54887 | -74.39489 | 37296 ft | 512 kts | 146° |
| 2026-04-21 23:16 | 28.49291 | -74.34494 | 37299 ft | 512 kts | 146° |
| 2026-04-21 23:17 | 28.43726 | -74.29532 | 37298 ft | 512 kts | 146° |
| 2026-04-21 23:17 | 28.38128 | -74.24543 | 37296 ft | 512 kts | 146° |
| 2026-04-21 23:18 | 28.32525 | -74.19559 | 37292 ft | 511 kts | 146° |
| 2026-04-21 23:18 | 28.26932 | -74.14575 | 37288 ft | 511 kts | 146° |
| 2026-04-21 23:19 | 28.21383 | -74.09528 | 37285 ft | 512 kts | 144° |
| 2026-04-21 23:19 | 28.16076 | -74.04210 | 37280 ft | 513 kts | 142° |
| 2026-04-21 23:20 | 28.10798 | -73.98760 | 37281 ft | 513 kts | 142° |
| 2026-04-21 23:20 | 28.05462 | -73.93383 | 37273 ft | 513 kts | 143° |
| 2026-04-21 23:21 | 28.00083 | -73.88093 | 37274 ft | 513 kts | 143° |
| 2026-04-21 23:21 | 27.94694 | -73.82800 | 37275 ft | 513 kts | 143° |
| 2026-04-21 23:22 | 27.89364 | -73.77521 | 37271 ft | 513 kts | 143° |
| 2026-04-21 23:22 | 27.84009 | -73.72195 | 37275 ft | 513 kts | 143° |
| 2026-04-21 23:23 | 27.78643 | -73.66879 | 37272 ft | 513 kts | 143° |
| 2026-04-21 23:23 | 27.73256 | -73.61590 | 37271 ft | 513 kts | 143° |
| 2026-04-21 23:24 | 27.67882 | -73.56307 | 37272 ft | 513 kts | 143° |
| 2026-04-21 23:24 | 27.62539 | -73.51046 | 37267 ft | 513 kts | 143° |
| 2026-04-21 23:25 | 27.57178 | -73.45767 | 37266 ft | 512 kts | 143° |
| 2026-04-21 23:25 | 27.51807 | -73.40492 | 37260 ft | 512 kts | 143° |
| 2026-04-21 23:26 | 27.46439 | -73.35235 | 37257 ft | 512 kts | 143° |
| 2026-04-21 23:26 | 27.41061 | -73.29982 | 37254 ft | 511 kts | 144° |
| 2026-04-21 23:27 | 27.35727 | -73.24777 | 37258 ft | 511 kts | 144° |
| 2026-04-21 23:27 | 27.30350 | -73.19536 | 37258 ft | 511 kts | 144° |
| 2026-04-21 23:28 | 27.24976 | -73.14294 | 37255 ft | 511 kts | 144° |
| 2026-04-21 23:28 | 27.19600 | -73.09061 | 37255 ft | 511 kts | 144° |
| 2026-04-21 23:29 | 27.14262 | -73.03882 | 37250 ft | 511 kts | 144° |
| 2026-04-21 23:29 | 27.08886 | -72.98657 | 37253 ft | 511 kts | 144° |
| 2026-04-21 23:30 | 27.03515 | -72.93435 | 37251 ft | 511 kts | 144° |
| 2026-04-21 23:30 | 26.98133 | -72.88228 | 37245 ft | 511 kts | 144° |
| 2026-04-21 23:31 | 26.92746 | -72.83030 | 37243 ft | 511 kts | 144° |
| 2026-04-21 23:31 | 26.87400 | -72.77876 | 37246 ft | 511 kts | 144° |
| 2026-04-21 23:32 | 26.82015 | -72.72683 | 37243 ft | 511 kts | 144° |
| 2026-04-21 23:32 | 26.76633 | -72.67499 | 37235 ft | 510 kts | 145° |
| 2026-04-21 23:33 | 26.71242 | -72.62318 | 37234 ft | 511 kts | 145° |
| 2026-04-21 23:33 | 26.65887 | -72.57188 | 37240 ft | 511 kts | 145° |
| 2026-04-21 23:34 | 26.60496 | -72.52014 | 37235 ft | 511 kts | 145° |
| 2026-04-21 23:34 | 26.55111 | -72.46836 | 37237 ft | 511 kts | 145° |
| 2026-04-21 23:35 | 26.49748 | -72.41711 | 37226 ft | 510 kts | 145° |
| 2026-04-21 23:35 | 26.44363 | -72.36558 | 37238 ft | 510 kts | 145° |
| 2026-04-21 23:36 | 26.38966 | -72.31405 | 37233 ft | 510 kts | 145° |
| 2026-04-21 23:36 | 26.33567 | -72.26277 | 37224 ft | 510 kts | 146° |
| 2026-04-21 23:37 | 26.28167 | -72.21144 | 37222 ft | 510 kts | 145° |
| 2026-04-21 23:37 | 26.22818 | -72.16037 | 37212 ft | 510 kts | 146° |
| 2026-04-21 23:38 | 26.17426 | -72.10917 | 37213 ft | 509 kts | 146° |
| 2026-04-21 23:38 | 26.12034 | -72.05801 | 37211 ft | 509 kts | 146° |
| 2026-04-21 23:39 | 26.06642 | -72.00694 | 37212 ft | 509 kts | 146° |
| 2026-04-21 23:39 | 26.01247 | -71.95603 | 37205 ft | 509 kts | 146° |
| 2026-04-21 23:40 | 25.95893 | -71.90549 | 37201 ft | 508 kts | 146° |
| 2026-04-21 23:40 | 25.90501 | -71.85466 | 37198 ft | 508 kts | 146° |
| 2026-04-21 23:41 | 25.85108 | -71.80391 | 37199 ft | 508 kts | 146° |
| 2026-04-21 23:41 | 25.79729 | -71.75316 | 37193 ft | 508 kts | 146° |
| 2026-04-21 23:42 | 25.74379 | -71.70282 | 37188 ft | 507 kts | 146° |
| 2026-04-21 23:42 | 25.68991 | -71.65230 | 37186 ft | 507 kts | 146° |
| 2026-04-21 23:43 | 25.63606 | -71.60188 | 37182 ft | 507 kts | 146° |
| 2026-04-21 23:43 | 25.58226 | -71.55142 | 37173 ft | 506 kts | 146° |
| 2026-04-21 23:44 | 25.52887 | -71.50147 | 37176 ft | 506 kts | 146° |
| 2026-04-21 23:44 | 25.47508 | -71.45111 | 37172 ft | 506 kts | 146° |
| 2026-04-21 23:45 | 25.39440 | -71.37574 | 37171 ft | 506 kts | 146° |
| 2026-04-21 23:46 | 25.34060 | -71.32564 | 37167 ft | 506 kts | 147° |
| 2026-04-21 23:46 | 25.28710 | -71.27593 | 37164 ft | 506 kts | 147° |
| 2026-04-21 23:47 | 25.23324 | -71.22595 | 37167 ft | 506 kts | 147° |
| 2026-04-21 23:47 | 25.17939 | -71.17604 | 37167 ft | 506 kts | 147° |
| 2026-04-21 23:48 | 25.12556 | -71.12607 | 37172 ft | 506 kts | 147° |
| 2026-04-21 23:48 | 25.07171 | -71.07614 | 37158 ft | 506 kts | 147° |
| 2026-04-21 23:49 | 25.01510 | -71.03182 | 37151 ft | 491 kts | 161° |
| 2026-04-21 23:49 | 24.95284 | -71.00708 | 37147 ft | 471 kts | 178° |
| 2026-04-21 23:50 | 24.88878 | -70.99887 | 37147 ft | 461 kts | 184° |
| 2026-04-21 23:50 | 24.82481 | -70.99253 | 37146 ft | 462 kts | 184° |
| 2026-04-21 23:51 | 24.76075 | -70.98610 | 37142 ft | 462 kts | 184° |
| 2026-04-21 23:51 | 24.69715 | -70.97966 | 37145 ft | 462 kts | 184° |
| 2026-04-21 23:52 | 24.63318 | -70.97329 | 37141 ft | 461 kts | 184° |
| 2026-04-21 23:52 | 24.56920 | -70.96703 | 37142 ft | 461 kts | 184° |
| 2026-04-21 23:53 | 24.50520 | -70.96069 | 37144 ft | 462 kts | 184° |
| 2026-04-21 23:53 | 24.44121 | -70.95434 | 37145 ft | 461 kts | 184° |
| 2026-04-21 23:54 | 24.37778 | -70.94814 | 37146 ft | 461 kts | 184° |
| 2026-04-21 23:54 | 24.31391 | -70.94185 | 37148 ft | 461 kts | 184° |
| 2026-04-21 23:55 | 24.24997 | -70.93555 | 37140 ft | 461 kts | 184° |
| 2026-04-21 23:55 | 24.18610 | -70.92918 | 37145 ft | 461 kts | 184° |
| 2026-04-21 23:56 | 24.12246 | -70.91348 | 37143 ft | 482 kts | 167° |
| 2026-04-21 23:56 | 24.09240 | -70.89735 | 37141 ft | 494 kts | 157° |
| 2026-04-21 23:56 | 24.06367 | -70.87628 | 37134 ft | 499 kts | 153° |
| 2026-04-21 23:57 | 24.00652 | -70.83325 | 37133 ft | 498 kts | 154° |
| 2026-04-21 23:57 | 23.94924 | -70.79053 | 37125 ft | 498 kts | 154° |
| 2026-04-21 23:58 | 23.89198 | -70.74791 | 37125 ft | 498 kts | 154° |
| 2026-04-21 23:58 | 23.83508 | -70.70565 | 37118 ft | 498 kts | 154° |
| 2026-04-21 23:59 | 23.77784 | -70.66306 | 37119 ft | 498 kts | 154° |
| 2026-04-21 23:59 | 23.72060 | -70.62048 | 37115 ft | 498 kts | 154° |
| 2026-04-22 00:00 | 23.66343 | -70.57798 | 37109 ft | 498 kts | 154° |
| 2026-04-22 00:00 | 23.60615 | -70.53547 | 37110 ft | 497 kts | 154° |
| 2026-04-22 00:01 | 23.54895 | -70.49304 | 37111 ft | 497 kts | 154° |
| 2026-04-22 00:01 | 23.49208 | -70.45100 | 37110 ft | 497 kts | 154° |
| 2026-04-22 00:02 | 23.43480 | -70.40874 | 37106 ft | 497 kts | 154° |
| 2026-04-22 00:02 | 23.37751 | -70.36643 | 37106 ft | 497 kts | 154° |
| 2026-04-22 00:03 | 23.32021 | -70.32408 | 37105 ft | 498 kts | 154° |
| 2026-04-22 00:03 | 23.27266 | -70.28891 | 37101 ft | 498 kts | 154° |
| 2026-04-22 00:04 | 23.21531 | -70.24671 | 37104 ft | 498 kts | 154° |
| 2026-04-22 00:04 | 23.15797 | -70.20458 | 37113 ft | 498 kts | 154° |
| 2026-04-22 00:05 | 23.10093 | -70.16267 | 37104 ft | 498 kts | 154° |
| 2026-04-22 00:05 | 23.04357 | -70.12055 | 37104 ft | 498 kts | 154° |
| 2026-04-22 00:06 | 22.98615 | -70.07850 | 37103 ft | 498 kts | 154° |
| 2026-04-22 00:06 | 22.92880 | -70.03652 | 37105 ft | 498 kts | 154° |
| 2026-04-22 00:07 | 22.87139 | -69.99440 | 37100 ft | 498 kts | 154° |
| 2026-04-22 00:07 | 22.81403 | -69.95243 | 37104 ft | 497 kts | 154° |
| 2026-04-22 00:08 | 22.75702 | -69.91072 | 37100 ft | 500 kts | 152° |
| 2026-04-22 00:08 | 22.70438 | -69.86004 | 37097 ft | 510 kts | 143° |
| 2026-04-22 00:09 | 22.65328 | -69.80677 | 37105 ft | 510 kts | 143° |
| 2026-04-22 00:09 | 22.60209 | -69.75376 | 37100 ft | 509 kts | 144° |
| 2026-04-22 00:10 | 22.55080 | -69.70085 | 37099 ft | 509 kts | 143° |
| 2026-04-22 00:10 | 22.49994 | -69.64825 | 37096 ft | 509 kts | 143° |
| 2026-04-22 00:11 | 22.44873 | -69.59531 | 37094 ft | 509 kts | 143° |
| 2026-04-22 00:11 | 22.39749 | -69.54245 | 37095 ft | 509 kts | 143° |
| 2026-04-22 00:12 | 22.34629 | -69.48958 | 37092 ft | 509 kts | 143° |
| 2026-04-22 00:12 | 22.29537 | -69.43720 | 37090 ft | 509 kts | 143° |
| 2026-04-22 00:13 | 22.24409 | -69.38455 | 37089 ft | 509 kts | 143° |
| 2026-04-22 00:13 | 22.19289 | -69.33188 | 37093 ft | 509 kts | 143° |
| 2026-04-22 00:14 | 22.14158 | -69.27925 | 37094 ft | 509 kts | 143° |
| 2026-04-22 00:14 | 22.09029 | -69.22667 | 37090 ft | 509 kts | 143° |
| 2026-04-22 00:15 | 22.03937 | -69.17446 | 37089 ft | 508 kts | 143° |
| 2026-04-22 00:15 | 21.98808 | -69.12200 | 37091 ft | 508 kts | 143° |
| 2026-04-22 00:16 | 21.93676 | -69.06960 | 37089 ft | 508 kts | 143° |
| 2026-04-22 00:16 | 21.88542 | -69.01724 | 37083 ft | 508 kts | 143° |
| 2026-04-22 00:17 | 21.83411 | -68.96486 | 37081 ft | 508 kts | 143° |
| 2026-04-22 00:17 | 21.78277 | -68.91250 | 37080 ft | 508 kts | 143° |
| 2026-04-22 00:18 | 21.73147 | -68.86029 | 37081 ft | 508 kts | 143° |
| 2026-04-22 00:18 | 21.68037 | -68.80842 | 37074 ft | 508 kts | 143° |
| 2026-04-22 00:19 | 21.62904 | -68.75628 | 37071 ft | 508 kts | 143° |
| 2026-04-22 00:19 | 21.57764 | -68.70411 | 37068 ft | 508 kts | 143° |
| 2026-04-22 00:20 | 21.52624 | -68.65198 | 37064 ft | 508 kts | 143° |
| 2026-04-22 00:20 | 21.47481 | -68.59999 | 37060 ft | 508 kts | 143° |
| 2026-04-22 00:21 | 21.42340 | -68.54806 | 37062 ft | 508 kts | 143° |
| 2026-04-22 00:21 | 21.37231 | -68.49647 | 37061 ft | 508 kts | 143° |
| 2026-04-22 00:22 | 21.32086 | -68.44445 | 37063 ft | 508 kts | 143° |
| 2026-04-22 00:22 | 21.26945 | -68.39260 | 37064 ft | 508 kts | 143° |
| 2026-04-22 00:23 | 21.21794 | -68.34073 | 37061 ft | 508 kts | 143° |
| 2026-04-22 00:23 | 21.16684 | -68.28923 | 37059 ft | 508 kts | 143° |
| 2026-04-22 00:24 | 21.11547 | -68.23758 | 37072 ft | 505 kts | 143° |
| 2026-04-22 00:24 | 21.06420 | -68.18620 | 37073 ft | 503 kts | 143° |
| 2026-04-22 00:25 | 21.01324 | -68.13506 | 37073 ft | 501 kts | 143° |
| 2026-04-22 00:25 | 20.96246 | -68.08404 | 37072 ft | 499 kts | 143° |
| 2026-04-22 00:26 | 20.91214 | -68.03374 | 37072 ft | 498 kts | 143° |
| 2026-04-22 00:26 | 20.85824 | -67.98922 | 37070 ft | 482 kts | 158° |
| 2026-04-22 00:27 | 20.79800 | -67.96155 | 37075 ft | 464 kts | 171° |
| 2026-04-22 00:27 | 20.73661 | -67.94034 | 37068 ft | 463 kts | 171° |
| 2026-04-22 00:28 | 20.67535 | -67.91912 | 37069 ft | 462 kts | 171° |
| 2026-04-22 00:28 | 20.61466 | -67.89801 | 37070 ft | 462 kts | 171° |
| 2026-04-22 00:29 | 20.55361 | -67.87675 | 37078 ft | 461 kts | 171° |
| 2026-04-22 00:29 | 20.49273 | -67.85571 | 37066 ft | 460 kts | 171° |
| 2026-04-22 00:30 | 20.43192 | -67.83473 | 37065 ft | 459 kts | 171° |
| 2026-04-22 00:30 | 20.37161 | -67.81383 | 37065 ft | 459 kts | 171° |
| 2026-04-22 00:31 | 20.31093 | -67.79281 | 37066 ft | 458 kts | 171° |
| 2026-04-22 00:31 | 20.25039 | -67.77196 | 37066 ft | 457 kts | 171° |
| 2026-04-22 00:32 | 20.18986 | -67.75107 | 37066 ft | 457 kts | 170° |
| 2026-04-22 00:32 | 20.12983 | -67.73033 | 37065 ft | 456 kts | 170° |
| 2026-04-22 00:33 | 20.06939 | -67.70954 | 37062 ft | 456 kts | 170° |
| 2026-04-22 00:33 | 20.00904 | -67.68882 | 37062 ft | 456 kts | 170° |
| 2026-04-22 00:34 | 19.94876 | -67.66806 | 37066 ft | 455 kts | 170° |
| 2026-04-22 00:34 | 19.88848 | -67.64733 | 37063 ft | 455 kts | 170° |
| 2026-04-22 00:35 | 19.82866 | -67.62672 | 37062 ft | 455 kts | 170° |
| 2026-04-22 00:35 | 19.76899 | -67.60625 | 37061 ft | 454 kts | 170° |
| 2026-04-22 00:36 | 19.70879 | -67.58573 | 37066 ft | 454 kts | 170° |
| 2026-04-22 00:36 | 19.66417 | -67.57047 | 37078 ft | 456 kts | 170° |
| 2026-04-22 00:37 | 19.65637 | -67.56779 | 37073 ft | 458 kts | 170° |
| 2026-04-22 01:00 | 19.65286 | -67.56657 | 37087 ft | 458 kts | 169° |
| 2026-04-22 01:01 | 19.59210 | -67.54496 | 37023 ft | 470 kts | 169° |
| 2026-04-22 01:01 | 19.56083 | -67.53442 | 36762 ft | 474 kts | 169° |
| 2026-04-22 01:01 | 19.52932 | -67.52390 | 36512 ft | 475 kts | 170° |
| 2026-04-22 01:02 | 19.49769 | -67.51336 | 36265 ft | 477 kts | 169° |
| 2026-04-22 01:02 | 19.46600 | -67.50274 | 36013 ft | 478 kts | 169° |
| 2026-04-22 01:02 | 19.43429 | -67.49198 | 35772 ft | 480 kts | 169° |
| 2026-04-22 01:02 | 19.40247 | -67.48113 | 35534 ft | 481 kts | 169° |
| 2026-04-22 01:03 | 19.37100 | -67.47038 | 35293 ft | 482 kts | 169° |
| 2026-04-22 01:03 | 19.33902 | -67.45943 | 35062 ft | 484 kts | 169° |
| 2026-04-22 01:03 | 19.30705 | -67.44845 | 34715 ft | 485 kts | 169° |
| 2026-04-22 01:03 | 19.27468 | -67.43737 | 33688 ft | 493 kts | 168° |
| 2026-04-22 01:04 | 19.24180 | -67.42619 | 32658 ft | 499 kts | 168° |
| 2026-04-22 01:04 | 19.20847 | -67.41485 | 31661 ft | 505 kts | 168° |
| 2026-04-22 01:04 | 19.17533 | -67.40353 | 31079 ft | 500 kts | 168° |
| 2026-04-22 01:04 | 19.14242 | -67.39226 | 30375 ft | 498 kts | 167° |
| 2026-04-22 01:05 | 19.10955 | -67.38104 | 29532 ft | 497 kts | 167° |
| 2026-04-22 01:05 | 19.07665 | -67.36983 | 28732 ft | 494 kts | 167° |
| 2026-04-22 01:05 | 19.04413 | -67.35875 | 28037 ft | 489 kts | 167° |
| 2026-04-22 01:05 | 19.01233 | -67.34794 | 27381 ft | 484 kts | 167° |
| 2026-04-22 01:06 | 18.98048 | -67.33714 | 26719 ft | 478 kts | 167° |
| 2026-04-22 01:06 | 18.94897 | -67.32649 | 26033 ft | 472 kts | 167° |
| 2026-04-22 01:06 | 18.91784 | -67.31596 | 25269 ft | 469 kts | 166° |
| 2026-04-22 01:06 | 18.88705 | -67.30552 | 24649 ft | 461 kts | 166° |
| 2026-04-22 01:07 | 18.85662 | -67.29525 | 24020 ft | 456 kts | 166° |
| 2026-04-22 01:07 | 18.82666 | -67.28518 | 23407 ft | 449 kts | 166° |
| 2026-04-22 01:07 | 18.79716 | -67.27526 | 22829 ft | 441 kts | 166° |
| 2026-04-22 01:07 | 18.76817 | -67.26549 | 22316 ft | 435 kts | 166° |
| 2026-04-22 01:08 | 18.73949 | -67.25581 | 21810 ft | 430 kts | 165° |
| 2026-04-22 01:08 | 18.71112 | -67.24621 | 21319 ft | 426 kts | 165° |
| 2026-04-22 01:08 | 18.68341 | -67.23682 | 20848 ft | 423 kts | 165° |
| 2026-04-22 01:08 | 18.65546 | -67.22734 | 20356 ft | 420 kts | 165° |
| 2026-04-22 01:09 | 18.62774 | -67.21796 | 19869 ft | 418 kts | 165° |
| 2026-04-22 01:09 | 18.60011 | -67.20864 | 19372 ft | 417 kts | 165° |
| 2026-04-22 01:09 | 18.57255 | -67.19934 | 18869 ft | 416 kts | 164° |
| 2026-04-22 01:09 | 18.54502 | -67.19005 | 18317 ft | 416 kts | 164° |
| 2026-04-22 01:10 | 18.51737 | -67.18073 | 17834 ft | 413 kts | 164° |
| 2026-04-22 01:10 | 18.48989 | -67.17233 | 17241 ft | 411 kts | 170° |
| 2026-04-22 01:10 | 18.46184 | -67.16872 | 16724 ft | 404 kts | 177° |
| 2026-04-22 01:10 | 18.43424 | -67.16630 | 16167 ft | 401 kts | 177° |
| 2026-04-22 01:11 | 18.40653 | -67.16391 | 15652 ft | 397 kts | 177° |
| 2026-04-22 01:11 | 18.37920 | -67.16160 | 15139 ft | 392 kts | 177° |
| 2026-04-22 01:11 | 18.35222 | -67.15933 | 14635 ft | 387 kts | 176° |
| 2026-04-22 01:11 | 18.32551 | -67.15707 | 14128 ft | 383 kts | 176° |
| 2026-04-22 01:12 | 18.29896 | -67.15479 | 13595 ft | 382 kts | 176° |
| 2026-04-22 01:12 | 18.27278 | -67.15068 | 13067 ft | 381 kts | 166° |
| 2026-04-22 01:12 | 18.24816 | -67.14078 | 12552 ft | 379 kts | 153° |
| 2026-04-22 01:12 | 18.22622 | -67.12556 | 12016 ft | 377 kts | 141° |
| 2026-04-22 01:13 | 18.20610 | -67.10847 | 11488 ft | 375 kts | 141° |
| 2026-04-22 01:13 | 18.18586 | -67.09135 | 10945 ft | 373 kts | 141° |
| 2026-04-22 01:13 | 18.16570 | -67.07436 | 10537 ft | 367 kts | 141° |
| 2026-04-22 01:13 | 18.14635 | -67.05809 | 10419 ft | 353 kts | 141° |
| 2026-04-22 01:14 | 18.12755 | -67.04226 | 10302 ft | 340 kts | 141° |
| 2026-04-22 01:14 | 18.10941 | -67.02697 | 10191 ft | 329 kts | 141° |
| 2026-04-22 01:14 | 18.09193 | -67.01222 | 10062 ft | 316 kts | 141° |
| 2026-04-22 01:14 | 18.07512 | -66.99804 | 9912 ft | 305 kts | 141° |
| 2026-04-22 01:15 | 18.05870 | -66.98421 | 9566 ft | 301 kts | 141° |
| 2026-04-22 01:15 | 18.04243 | -66.97052 | 9157 ft | 298 kts | 141° |
| 2026-04-22 01:15 | 18.02636 | -66.95697 | 8699 ft | 295 kts | 141° |
| 2026-04-22 01:15 | 18.01058 | -66.94367 | 8238 ft | 293 kts | 141° |
| 2026-04-22 01:16 | 17.99475 | -66.93035 | 7790 ft | 291 kts | 141° |
| 2026-04-22 01:16 | 17.97900 | -66.91712 | 7325 ft | 289 kts | 140° |
| 2026-04-22 01:16 | 17.96337 | -66.90397 | 6885 ft | 285 kts | 140° |
| 2026-04-22 01:16 | 17.94827 | -66.89128 | 6444 ft | 271 kts | 140° |
| 2026-04-22 01:17 | 17.93398 | -66.87906 | 5965 ft | 259 kts | 136° |
| 2026-04-22 01:17 | 17.92397 | -66.86411 | 5511 ft | 247 kts | 109° |
| 2026-04-22 01:17 | 17.92125 | -66.84679 | 5093 ft | 238 kts | 84° |
| 2026-04-22 01:17 | 17.92548 | -66.83058 | 4752 ft | 226 kts | 60° |
| 2026-04-22 01:18 | 17.93470 | -66.81769 | 4411 ft | 218 kts | 47° |
| 2026-04-22 01:18 | 17.94452 | -66.80592 | 4130 ft | 209 kts | 47° |
| 2026-04-22 01:18 | 17.95378 | -66.79478 | 3886 ft | 201 kts | 48° |
| 2026-04-22 01:18 | 17.96282 | -66.78390 | 3638 ft | 195 kts | 48° |
| 2026-04-22 01:19 | 17.97120 | -66.77281 | 3394 ft | 193 kts | 58° |
| 2026-04-22 01:19 | 17.97734 | -66.76028 | 3153 ft | 192 kts | 62° |
| 2026-04-22 01:19 | 17.98336 | -66.74784 | 3031 ft | 191 kts | 62° |
| 2026-04-22 01:19 | 17.98944 | -66.73536 | 3020 ft | 192 kts | 61° |
| 2026-04-22 01:20 | 17.99557 | -66.72283 | 3021 ft | 193 kts | 61° |
| 2026-04-22 01:20 | 18.00171 | -66.71025 | 2921 ft | 195 kts | 62° |
| 2026-04-22 01:20 | 18.00784 | -66.69766 | 2648 ft | 190 kts | 62° |
| 2026-04-22 01:20 | 18.01371 | -66.68560 | 2378 ft | 180 kts | 62° |
| 2026-04-22 01:21 | 18.01726 | -66.67357 | 2149 ft | 165 kts | 81° |
| 2026-04-22 01:21 | 18.01794 | -66.66212 | 1922 ft | 149 kts | 85° |
| 2026-04-22 01:21 | 18.01851 | -66.65159 | 1753 ft | 141 kts | 85° |
| 2026-04-22 01:21 | 18.01917 | -66.64145 | 1530 ft | 138 kts | 84° |
| 2026-04-22 01:22 | 18.01997 | -66.63144 | 1283 ft | 137 kts | 84° |
| 2026-04-22 01:22 | 18.02037 | -66.62162 | 1081 ft | 136 kts | 90° |
| 2026-04-22 01:22 | 18.02010 | -66.61168 | 905 ft | 136 kts | 91° |
| 2026-04-22 01:22 | 18.01927 | -66.60179 | 681 ft | 136 kts | 97° |
| 2026-04-22 01:23 | 18.01723 | -66.59213 | 489 ft | 136 kts | 105° |
| 2026-04-22 01:23 | 18.01442 | -66.58268 | 293 ft | 136 kts | 107° |
| 2026-04-22 01:23 | 18.01149 | -66.57329 | 109 ft | 135 kts | 107° |
| 2026-04-22 01:23 | 18.00882 | -66.56460 | 37 ft | 103 kts | 108° |
| 2026-04-22 01:24 | 18.00710 | -66.55914 | 34 ft | 54 kts | 108° |
| 2026-04-22 01:24 | 18.00618 | -66.55610 | 37 ft | 35 kts | 108° |
| 2026-04-22 01:24 | 18.00565 | -66.55425 | 36 ft | 19 kts | 105° |
| 2026-04-22 01:24 | 18.00598 | -66.55346 | 36 ft | 14 kts | 16° |
| 2026-04-22 01:25 | 18.00666 | -66.55372 | 37 ft | 11 kts | 290° |
| 2026-04-22 01:25 | 18.00686 | -66.55458 | 37 ft | 13 kts | 288° |
| 2026-04-22 01:25 | 18.00715 | -66.55551 | 35 ft | 14 kts | 288° |
| 2026-04-22 01:25 | 18.00746 | -66.55652 | 35 ft | 15 kts | 288° |
| 2026-04-22 01:26 | 18.00779 | -66.55760 | 36 ft | 16 kts | 288° |
| 2026-04-22 01:26 | 18.00814 | -66.55872 | 37 ft | 17 kts | 288° |
| 2026-04-22 01:26 | 18.00850 | -66.55987 | 36 ft | 15 kts | 290° |
| 2026-04-22 01:26 | 18.00888 | -66.56092 | 34 ft | 16 kts | 288° |
| 2026-04-22 01:27 | 18.00914 | -66.56179 | 37 ft | 10 kts | 288° |
| 2026-04-22 01:27 | 18.00920 | -66.56198 | 37 ft | 0 kts | 288° |
| 2026-04-22 01:28 | 18.00920 | -66.56200 | 37 ft | 1 kts | 288° |
| 2026-04-22 01:29 | 18.00929 | -66.56227 | 37 ft | 6 kts | 288° |
| 2026-04-22 01:29 | 18.00960 | -66.56258 | 37 ft | 7 kts | 330° |
| 2026-04-22 01:29 | 18.00990 | -66.56283 | 35 ft | 4 kts | 319° |
| 2026-04-22 01:29 | 18.01002 | -66.56294 | 37 ft | 1 kts | 320° |